createdAt,value
2023-04-08T00:00:46.244Z,30.00
2023-04-08T00:06:48.891Z,27.00
2023-04-08T00:12:57.036Z,27.25
2023-04-08T00:18:59.192Z,30.25
2023-04-08T00:25:02.134Z,29.25
2023-04-08T00:31:05.057Z,30.00
2023-04-08T00:37:07.516Z,29.00
2023-04-08T00:43:09.671Z,30.25
2023-04-08T00:49:13.005Z,29.75
2023-04-08T00:55:18.056Z,29.00
2023-04-08T01:01:32.149Z,30.75
2023-04-08T01:07:41.825Z,28.25
2023-04-08T01:13:46.535Z,29.25
2023-04-08T01:19:50.967Z,31.00
2023-04-08T01:25:54.516Z,28.50
2023-04-08T01:31:58.091Z,31.00
2023-04-08T01:38:05.878Z,29.25
2023-04-08T01:44:10.551Z,28.50
2023-04-08T01:50:14.023Z,29.75
2023-04-08T01:56:17.545Z,30.50
2023-04-08T02:02:25.399Z,30.00
2023-04-08T02:08:27.804Z,31.25
2023-04-08T02:14:30.429Z,29.25
2023-04-08T02:20:48.214Z,30.00
2023-04-08T02:26:52.374Z,30.50
2023-04-08T02:32:54.994Z,29.25
2023-04-08T02:38:59.088Z,31.00
2023-04-08T02:45:01.259Z,32.00
2023-04-08T02:51:04.414Z,31.00
2023-04-08T02:57:08.254Z,31.00
2023-04-08T03:03:11.151Z,31.25
2023-04-08T03:09:14.438Z,30.00
2023-04-08T03:15:17.297Z,34.50
2023-04-08T03:21:19.553Z,32.00
2023-04-08T03:27:22.874Z,34.50
2023-04-08T03:33:25.569Z,33.75
2023-04-08T03:39:28.938Z,34.00
2023-04-08T03:45:32.340Z,33.00
2023-04-08T03:51:34.585Z,37.00
2023-04-08T03:57:36.837Z,35.25
2023-04-08T04:03:39.077Z,33.75
2023-04-08T04:09:41.642Z,33.75
2023-04-08T04:15:45.792Z,34.75
